createdAt,value
2018-03-18T00:00:55.338Z,19.50
2018-03-18T00:05:58.455Z,19.50
2018-03-18T00:11:01.118Z,19.50
2018-03-18T00:16:03.663Z,19.50
2018-03-18T00:21:06.931Z,19.50
2018-03-18T00:26:09.532Z,19.50
2018-03-18T00:31:12.076Z,19.40
2018-03-18T00:36:15.248Z,19.40
2018-03-18T00:41:17.945Z,19.50
2018-03-18T00:46:20.456Z,19.30
2018-03-18T00:51:34.844Z,19.20
2018-03-18T00:56:38.129Z,19.40
2018-03-18T01:01:41.611Z,19.40
2018-03-18T01:06:45.387Z,19.50
2018-03-18T01:11:47.898Z,19.50
2018-03-18T01:16:50.439Z,19.60
2018-03-18T01:21:53.189Z,19.60
2018-03-18T01:26:55.690Z,19.70
2018-03-18T01:31:58.860Z,19.60
2018-03-18T01:37:02.334Z,19.70
2018-03-18T01:42:04.862Z,19.70
2018-03-18T01:47:07.399Z,19.70
2018-03-18T01:52:09.923Z,19.80
2018-03-18T01:57:12.658Z,19.80
2018-03-18T02:02:15.227Z,19.80
2018-03-18T02:07:18.083Z,19.90
2018-03-18T02:12:20.659Z,19.90
2018-03-18T02:17:23.983Z,20.00
2018-03-18T02:22:26.527Z,20.00
2018-03-18T02:27:29.575Z,20.00
2018-03-18T02:32:32.151Z,20.00
2018-03-18T02:37:34.846Z,20.00
2018-03-18T02:42:37.349Z,20.10
2018-03-18T02:47:39.887Z,20.10
2018-03-18T02:52:42.417Z,20.10
2018-03-18T02:57:45.452Z,20.10
2018-03-18T03:02:49.272Z,20.10
2018-03-18T03:07:52.625Z,20.10
2018-03-18T03:12:55.400Z,20.10
2018-03-18T03:17:58.343Z,20.10
2018-03-18T03:23:00.976Z,20.20
2018-03-18T03:28:04.540Z,20.20
2018-03-18T03:33:07.197Z,20.20
2018-03-18T03:38:10.390Z,20.20
2018-03-18T03:43:13.215Z,20.20
2018-03-18T03:48:16.337Z,20.20
2018-03-18T03:53:19.012Z,20.20
2018-03-18T03:58:21.550Z,20.30
2018-03-18T04:03:24.134Z,20.30
2018-03-18T04:08:26.796Z,20.30
2018-03-18T04:13:30.124Z,20.30
2018-03-18T04:18:32.692Z,20.30
2018-03-18T04:23:35.954Z,20.30
2018-03-18T04:28:38.543Z,20.30
2018-03-18T04:33:41.183Z,20.30
2018-03-18T04:38:43.734Z,20.30
2018-03-18T04:43:46.265Z,20.40
2018-03-18T04:48:50.358Z,20.30
2018-03-18T04:53:53.698Z,20.40
2018-03-18T04:58:56.425Z,20.40
2018-03-18T05:03:59.137Z,20.40
2018-03-18T05:09:01.860Z,20.40
2018-03-18T05:14:04.975Z,20.40
2018-03-18T05:19:07.668Z,20.40
2018-03-18T05:24:11.006Z,20.40
2018-03-18T05:29:13.583Z,20.40
2018-03-18T05:34:16.655Z,20.50
2018-03-18T05:39:19.171Z,20.90
2018-03-18T05:44:21.693Z,21.10
2018-03-18T05:49:24.697Z,21.40
2018-03-18T05:54:27.207Z,21.00
2018-03-18T05:59:29.738Z,20.90
2018-03-18T06:04:32.275Z,21.80
2018-03-18T06:09:35.775Z,22.50
2018-03-18T06:14:38.319Z,22.90
2018-03-18T06:19:40.883Z,22.50
2018-03-18T06:24:44.197Z,21.50
2018-03-18T06:29:47.491Z,21.20
2018-03-18T06:34:51.286Z,21.20
2018-03-18T06:39:53.793Z,21.30
2018-03-18T06:44:56.700Z,21.20
2018-03-18T06:49:59.249Z,21.30
2018-03-18T06:55:02.678Z,21.40
2018-03-18T07:00:06.588Z,21.40
2018-03-18T07:05:09.875Z,21.50
2018-03-18T07:10:12.508Z,21.50
2018-03-18T07:15:15.052Z,21.50
2018-03-18T07:20:17.591Z,21.60
2018-03-18T07:25:20.894Z,21.70
2018-03-18T07:30:24.178Z,21.70
2018-03-18T07:35:26.842Z,21.70
2018-03-18T07:40:30.084Z,21.70
2018-03-18T07:45:33.054Z,21.70
2018-03-18T07:50:35.689Z,21.80
2018-03-18T07:55:38.152Z,21.80
2018-03-18T08:00:40.879Z,21.90
2018-03-18T08:05:44.367Z,21.80
2018-03-18T08:10:47.361Z,21.80
2018-03-18T08:15:50.620Z,21.90
2018-03-18T08:20:54.314Z,21.90
2018-03-18T08:25:56.957Z,21.90
2018-03-18T08:30:59.669Z,21.90
2018-03-18T08:36:02.979Z,21.90
2018-03-18T08:41:06.218Z,21.90
2018-03-18T08:46:09.551Z,21.90
2018-03-18T08:51:12.379Z,21.90
2018-03-18T08:56:15.793Z,21.90
2018-03-18T09:01:18.608Z,21.90
2018-03-18T09:06:22.968Z,21.90
2018-03-18T09:11:26.118Z,21.90
2018-03-18T09:16:28.846Z,21.90
2018-03-18T09:21:32.330Z,21.90
2018-03-18T09:26:35.067Z,21.90
2018-03-18T09:31:38.371Z,21.90
2018-03-18T09:36:41.682Z,21.90
2018-03-18T09:41:44.978Z,21.80
2018-03-18T09:46:47.592Z,21.80
2018-03-18T09:51:50.110Z,21.80
2018-03-18T09:56:52.782Z,21.50
2018-03-18T10:01:56.366Z,20.40
2018-03-18T10:06:58.914Z,20.00
2018-03-18T10:12:01.514Z,19.60
2018-03-18T10:17:04.448Z,19.30
2018-03-18T10:22:07.290Z,19.30
2018-03-18T10:27:15.006Z,19.30
2018-03-18T10:32:17.802Z,19.00
2018-03-18T10:37:21.106Z,18.20
2018-03-18T10:42:23.675Z,18.20
2018-03-18T10:47:26.200Z,18.40
2018-03-18T10:52:28.734Z,18.40
2018-03-18T10:57:31.489Z,18.40
2018-03-18T11:02:34.939Z,18.60
2018-03-18T11:07:37.654Z,18.60
2018-03-18T11:12:40.184Z,19.30
2018-03-18T11:17:42.716Z,19.50
2018-03-18T11:22:45.632Z,19.70
2018-03-18T11:27:48.738Z,19.70
2018-03-18T11:32:51.908Z,19.80
2018-03-18T11:37:55.199Z,19.80
2018-03-18T11:42:58.980Z,19.90
2018-03-18T11:48:01.508Z,19.90
2018-03-18T11:53:04.061Z,19.90
2018-03-18T11:58:06.698Z,19.90
2018-03-18T12:03:10.112Z,20.00
2018-03-18T12:08:24.385Z,20.00
2018-03-18T12:13:26.917Z,20.00
2018-03-18T12:18:30.047Z,20.00
2018-03-18T12:23:33.263Z,20.00
2018-03-18T12:28:36.542Z,20.00
2018-03-18T12:33:39.866Z,19.70
2018-03-18T12:38:42.402Z,19.70
2018-03-18T12:43:44.922Z,19.60
2018-03-18T12:48:49.039Z,19.80
2018-03-18T12:53:53.423Z,19.90
2018-03-18T12:58:55.968Z,19.90
2018-03-18T13:03:58.511Z,19.90
2018-03-18T13:09:01.332Z,20.00
2018-03-18T13:14:05.014Z,19.90
2018-03-18T13:19:08.010Z,20.00
2018-03-18T13:24:11.296Z,20.00
2018-03-18T13:29:14.086Z,20.00
2018-03-18T13:34:16.690Z,20.00
2018-03-18T13:39:19.498Z,20.10
2018-03-18T13:44:22.126Z,20.00
2018-03-18T13:49:24.704Z,20.00
2018-03-18T13:54:27.321Z,20.10
2018-03-18T13:59:29.914Z,20.00
2018-03-18T14:04:33.113Z,20.00
2018-03-18T14:09:35.657Z,20.00
2018-03-18T14:14:38.249Z,20.10
2018-03-18T14:19:40.789Z,20.00
2018-03-18T14:24:44.106Z,20.00
2018-03-18T14:29:46.846Z,20.00
2018-03-18T14:34:49.596Z,19.90
2018-03-18T14:39:53.211Z,20.00
2018-03-18T14:44:56.335Z,20.00
2018-03-18T14:49:59.117Z,20.00
2018-03-18T14:55:01.697Z,20.00
2018-03-18T15:00:06.315Z,20.00
2018-03-18T15:05:09.307Z,19.90
2018-03-18T15:10:11.861Z,20.00
2018-03-18T15:15:14.841Z,19.90
2018-03-18T15:20:17.790Z,19.90
2018-03-18T15:25:20.360Z,20.00
2018-03-18T15:30:23.905Z,20.00
2018-03-18T15:35:26.582Z,20.00
2018-03-18T15:40:29.249Z,20.00
2018-03-18T15:45:31.887Z,20.00
2018-03-18T15:50:35.031Z,20.00
2018-03-18T15:55:37.831Z,20.00
2018-03-18T16:00:44.975Z,20.00
2018-03-18T16:05:48.657Z,20.00
2018-03-18T16:10:52.419Z,20.00
2018-03-18T16:15:55.630Z,19.90
2018-03-18T16:20:58.567Z,19.90
2018-03-18T16:26:01.334Z,19.90
2018-03-18T16:31:21.023Z,19.90
2018-03-18T16:36:23.987Z,19.90
2018-03-18T16:41:27.139Z,19.90
2018-03-18T16:46:31.040Z,19.90
2018-03-18T16:51:33.814Z,19.80
2018-03-18T16:56:36.525Z,19.80
2018-03-18T17:01:39.299Z,19.80
2018-03-18T17:06:41.910Z,19.80
2018-03-18T17:11:44.504Z,19.90
2018-03-18T17:16:47.173Z,19.90
2018-03-18T17:21:49.975Z,20.00
2018-03-18T17:26:52.770Z,20.00
2018-03-18T17:31:55.365Z,20.10
2018-03-18T17:36:58.835Z,20.10
2018-03-18T17:42:01.760Z,20.10
2018-03-18T17:47:16.187Z,20.20
2018-03-18T17:52:30.793Z,20.20
2018-03-18T17:57:33.571Z,20.20
2018-03-18T18:02:37.411Z,20.20
2018-03-18T18:07:40.707Z,20.30
2018-03-18T18:12:43.554Z,20.20
2018-03-18T18:17:46.598Z,20.20
2018-03-18T18:22:49.395Z,20.20
2018-03-18T18:27:51.968Z,20.20
2018-03-18T18:32:54.690Z,20.20
2018-03-18T18:37:57.269Z,20.20
2018-03-18T18:43:00.126Z,20.30
2018-03-18T18:48:02.693Z,20.30
2018-03-18T18:53:06.146Z,20.20
2018-03-18T18:58:08.719Z,20.20
2018-03-18T19:03:12.170Z,20.30
2018-03-18T19:08:14.745Z,20.30
2018-03-18T19:13:18.782Z,20.30
2018-03-18T19:18:22.156Z,20.20
2018-03-18T19:23:24.997Z,20.30
2018-03-18T19:28:28.485Z,20.20
2018-03-18T19:33:31.334Z,20.20
2018-03-18T19:38:34.183Z,20.20
2018-03-18T19:43:36.996Z,20.20
2018-03-18T19:48:40.354Z,20.30
2018-03-18T19:53:43.138Z,20.30
2018-03-18T19:58:46.276Z,20.30
2018-03-18T20:03:48.838Z,20.30
2018-03-18T20:08:51.858Z,20.40
2018-03-18T20:13:54.954Z,20.40
2018-03-18T20:18:57.545Z,20.40
2018-03-18T20:24:01.052Z,20.50
2018-03-18T20:29:04.445Z,20.50
2018-03-18T20:34:07.221Z,20.50
2018-03-18T20:39:09.860Z,20.60
2018-03-18T20:44:13.256Z,20.60
2018-03-18T20:49:17.060Z,20.60
2018-03-18T20:54:19.645Z,20.70
2018-03-18T20:59:22.790Z,20.70
2018-03-18T21:04:25.770Z,20.70
2018-03-18T21:09:28.414Z,20.60
2018-03-18T21:14:31.130Z,20.70
2018-03-18T21:19:34.467Z,20.80
2018-03-18T21:24:37.597Z,20.90
2018-03-18T21:29:40.157Z,20.90
2018-03-18T21:34:43.215Z,20.90
2018-03-18T21:39:45.781Z,21.00
2018-03-18T21:44:48.886Z,21.00
2018-03-18T21:49:51.660Z,21.10
2018-03-18T21:54:54.289Z,21.10
2018-03-18T21:59:57.102Z,21.10
2018-03-18T22:04:59.797Z,21.10
2018-03-18T22:10:02.380Z,21.10
2018-03-18T22:15:05.074Z,21.10
2018-03-18T22:20:07.582Z,21.10
2018-03-18T22:25:10.948Z,21.20
2018-03-18T22:30:13.741Z,21.20
2018-03-18T22:35:16.604Z,21.20
2018-03-18T22:40:19.367Z,21.30
2018-03-18T22:45:22.646Z,21.20
2018-03-18T22:50:25.191Z,21.30
2018-03-18T22:55:27.792Z,21.30
2018-03-18T23:00:30.746Z,21.30
2018-03-18T23:05:33.251Z,21.30
2018-03-18T23:10:36.009Z,21.40
2018-03-18T23:15:38.685Z,21.40
2018-03-18T23:20:41.320Z,21.40
2018-03-18T23:25:43.881Z,21.40
2018-03-18T23:30:46.453Z,21.50
2018-03-18T23:35:49.198Z,21.50
2018-03-18T23:40:52.535Z,21.50
2018-03-18T23:45:55.087Z,21.50
2018-03-18T23:50:57.682Z,21.40
2018-03-18T23:56:00.594Z,21.30
